createdAt,value
2023-03-29T00:00:11.229Z,3.27
2023-03-29T00:00:53.703Z,3.11
2023-03-29T00:01:36.007Z,3.11
2023-03-29T00:01:57.488Z,3.11
2023-03-29T00:02:29.758Z,3.11
2023-03-29T00:03:02.169Z,3.00
2023-03-29T00:03:33.586Z,3.11
2023-03-29T00:04:05.614Z,3.11
2023-03-29T00:04:37.499Z,3.11
2023-03-29T00:05:09.758Z,3.11
2023-03-29T00:05:41.562Z,3.11
2023-03-29T00:06:13.374Z,3.27
2023-03-29T00:06:45.341Z,3.27
2023-03-29T00:07:17.474Z,3.27
2023-03-29T00:07:49.697Z,3.27
2023-03-29T00:08:21.189Z,3.27
2023-03-29T00:08:53.320Z,3.27
2023-03-29T00:09:25.525Z,3.27
2023-03-29T00:09:57.339Z,3.38
2023-03-29T00:10:29.459Z,3.27
2023-03-29T00:11:01.539Z,3.27
2023-03-29T00:11:33.132Z,3.27
2023-03-29T00:12:05.299Z,3.27
2023-03-29T00:12:37.083Z,3.27
2023-03-29T00:12:53.261Z,3.27
2023-03-29T00:13:37.112Z,3.27
2023-03-29T00:14:09.326Z,3.27
2023-03-29T00:14:41.171Z,3.27
2023-03-29T00:15:14.200Z,3.27
2023-03-29T00:15:44.999Z,3.27
2023-03-29T00:16:17.104Z,3.27
2023-03-29T00:16:49.134Z,3.27
2023-03-29T00:17:20.841Z,3.27
2023-03-29T00:17:53.004Z,3.27
2023-03-29T00:18:24.871Z,3.27
2023-03-29T00:18:57.302Z,3.27
2023-03-29T00:19:28.833Z,3.27
2023-03-29T00:20:01.134Z,3.27
2023-03-29T00:20:32.794Z,3.38
2023-03-29T00:21:04.986Z,3.38
2023-03-29T00:21:36.659Z,3.38
2023-03-29T00:22:08.733Z,3.38
2023-03-29T00:22:40.834Z,3.38
2023-03-29T00:23:12.953Z,3.38
2023-03-29T00:23:44.678Z,3.38
2023-03-29T00:24:16.733Z,3.38
2023-03-29T00:24:48.618Z,3.38
2023-03-29T00:25:20.963Z,3.38
2023-03-29T00:25:52.448Z,3.38
2023-03-29T00:26:08.686Z,3.38
2023-03-29T00:26:40.674Z,3.38
2023-03-29T00:27:24.479Z,3.38
2023-03-29T00:27:56.618Z,3.38
2023-03-29T00:28:28.501Z,3.38
2023-03-29T00:29:00.465Z,3.38
2023-03-29T00:29:32.499Z,3.38
2023-03-29T00:30:06.411Z,3.38
2023-03-29T00:30:36.430Z,3.22
2023-03-29T00:30:52.917Z,3.22
2023-03-29T00:31:36.344Z,3.22
2023-03-29T00:32:08.364Z,3.22
2023-03-29T00:32:40.564Z,3.22
2023-03-29T00:33:12.319Z,3.22
2023-03-29T00:33:44.267Z,3.22
2023-03-29T00:34:16.281Z,3.22
2023-03-29T00:34:48.388Z,3.22
2023-03-29T00:35:20.665Z,3.22
2023-03-29T00:35:52.216Z,3.22
2023-03-29T00:36:24.266Z,3.22
2023-03-29T00:36:56.345Z,3.22
2023-03-29T00:37:27.925Z,3.22
2023-03-29T00:38:00.325Z,3.22
2023-03-29T00:38:32.158Z,3.22
2023-03-29T00:39:04.604Z,3.22
2023-03-29T00:39:36.209Z,3.22
2023-03-29T00:39:52.117Z,3.22
2023-03-29T00:40:24.548Z,3.22
2023-03-29T00:41:07.986Z,3.22
2023-03-29T00:41:40.049Z,3.27
2023-03-29T00:42:11.845Z,3.27
2023-03-29T00:42:43.879Z,3.27
2023-03-29T00:43:15.771Z,3.27
2023-03-29T00:43:47.937Z,3.27
2023-03-29T00:44:19.851Z,3.27
2023-03-29T00:44:51.776Z,3.27
2023-03-29T00:45:24.152Z,3.27
2023-03-29T00:45:56.008Z,3.27
2023-03-29T00:46:27.593Z,3.27
2023-03-29T00:46:59.820Z,3.27
2023-03-29T00:47:31.678Z,3.22
2023-03-29T00:48:04.095Z,3.22
2023-03-29T00:48:35.534Z,3.11
2023-03-29T00:48:51.659Z,3.11
2023-03-29T00:49:35.804Z,3.11
2023-03-29T00:50:07.931Z,3.11
2023-03-29T00:50:39.754Z,3.11
2023-03-29T00:51:11.650Z,3.11
2023-03-29T00:51:43.445Z,3.11
2023-03-29T00:52:15.582Z,3.11
2023-03-29T00:52:47.673Z,3.11
2023-03-29T00:53:19.573Z,3.11
2023-03-29T00:53:51.519Z,3.11
2023-03-29T00:54:23.533Z,3.11
2023-03-29T00:54:55.495Z,3.11
2023-03-29T00:55:27.744Z,3.11
2023-03-29T00:55:59.732Z,3.22
2023-03-29T00:56:31.283Z,3.22
2023-03-29T00:57:04.266Z,3.22
2023-03-29T00:57:35.411Z,3.22
2023-03-29T00:57:51.373Z,3.22
2023-03-29T00:58:23.295Z,3.22
2023-03-29T00:58:39.486Z,3.22
2023-03-29T00:59:11.412Z,3.22
2023-03-29T00:59:43.197Z,3.22
2023-03-29T01:00:16.680Z,3.22
2023-03-29T01:00:47.333Z,3.22
2023-03-29T01:01:19.319Z,3.22
2023-03-29T01:01:51.265Z,3.22
2023-03-29T01:02:07.297Z,3.22
2023-03-29T01:02:39.311Z,3.22
2023-03-29T01:03:23.692Z,3.22
2023-03-29T01:03:54.897Z,3.22
2023-03-29T01:04:27.129Z,3.22
2023-03-29T01:04:59.283Z,3.27
2023-03-29T01:05:31.205Z,3.27
2023-03-29T01:06:03.412Z,3.27
2023-03-29T01:06:34.787Z,3.27
2023-03-29T01:06:51.033Z,3.27
2023-03-29T01:07:35.105Z,3.27
2023-03-29T01:08:06.885Z,3.27
2023-03-29T01:08:38.948Z,3.27
2023-03-29T01:09:10.888Z,3.27
2023-03-29T01:09:42.749Z,3.27
2023-03-29T01:10:15.135Z,3.27
2023-03-29T01:10:46.992Z,3.27
2023-03-29T01:11:18.906Z,3.22
2023-03-29T01:11:50.708Z,3.22
2023-03-29T01:12:22.679Z,3.22
2023-03-29T01:12:54.819Z,3.22
2023-03-29T01:13:26.806Z,3.22
2023-03-29T01:13:58.937Z,3.22
2023-03-29T01:14:30.670Z,3.22
2023-03-29T01:15:05.576Z,3.22
2023-03-29T01:15:34.485Z,3.22
2023-03-29T01:15:50.871Z,3.22
2023-03-29T01:16:22.377Z,3.22
2023-03-29T01:16:38.642Z,3.22
2023-03-29T01:17:10.487Z,3.22
2023-03-29T01:17:42.370Z,3.22
2023-03-29T01:18:14.348Z,3.38
2023-03-29T01:18:46.426Z,3.22
2023-03-29T01:19:18.669Z,3.22
2023-03-29T01:19:50.462Z,3.38
2023-03-29T01:20:06.829Z,3.22
2023-03-29T01:20:38.305Z,3.22
2023-03-29T01:21:22.259Z,3.38
2023-03-29T01:21:54.227Z,3.38
2023-03-29T01:22:26.195Z,3.38
2023-03-29T01:22:58.260Z,3.38
2023-03-29T01:23:30.423Z,3.38
2023-03-29T01:24:02.750Z,3.38
2023-03-29T01:24:34.022Z,3.38
2023-03-29T01:24:50.513Z,3.38
2023-03-29T01:25:34.327Z,3.22
2023-03-29T01:26:06.149Z,3.11
2023-03-29T01:26:38.100Z,3.27
2023-03-29T01:27:09.915Z,3.27
2023-03-29T01:27:42.030Z,3.11
2023-03-29T01:28:14.096Z,3.27
2023-03-29T01:28:46.066Z,3.27
2023-03-29T01:29:17.890Z,3.27
2023-03-29T01:29:49.932Z,3.27
2023-03-29T01:30:22.326Z,3.27
2023-03-29T01:30:53.984Z,3.27
2023-03-29T01:31:25.774Z,3.27
2023-03-29T01:31:57.912Z,3.27
2023-03-29T01:32:30.199Z,3.27
2023-03-29T01:33:02.275Z,3.27
2023-03-29T01:33:33.701Z,3.27
2023-03-29T01:34:05.856Z,3.27
2023-03-29T01:34:37.664Z,3.27
2023-03-29T01:35:10.296Z,3.27
2023-03-29T01:35:41.634Z,3.27
2023-03-29T01:36:13.610Z,3.27
2023-03-29T01:36:45.660Z,3.27
2023-03-29T01:37:17.790Z,3.27
2023-03-29T01:37:49.640Z,3.27
2023-03-29T01:38:05.775Z,3.27
2023-03-29T01:38:37.366Z,3.27
2023-03-29T01:39:21.510Z,3.27
2023-03-29T01:39:53.611Z,3.38
2023-03-29T01:40:25.514Z,3.38
2023-03-29T01:40:57.584Z,3.38
2023-03-29T01:41:29.696Z,3.38
2023-03-29T01:42:01.574Z,3.38
2023-03-29T01:42:33.358Z,3.38
2023-03-29T01:42:49.449Z,3.38
2023-03-29T01:43:33.350Z,3.38
2023-03-29T01:44:05.449Z,3.27
2023-03-29T01:44:37.270Z,3.27
2023-03-29T01:45:10.864Z,3.27
2023-03-29T01:45:41.360Z,3.27
2023-03-29T01:46:13.169Z,3.27
2023-03-29T01:46:45.264Z,3.38
2023-03-29T01:47:17.126Z,3.38
2023-03-29T01:47:49.154Z,3.38
2023-03-29T01:48:21.232Z,3.38
2023-03-29T01:48:53.216Z,3.38
2023-03-29T01:49:25.010Z,3.38
2023-03-29T01:49:57.029Z,3.38
2023-03-29T01:50:29.473Z,3.38
2023-03-29T01:51:01.477Z,3.38
2023-03-29T01:51:32.943Z,3.27
2023-03-29T01:51:49.422Z,3.27
2023-03-29T01:52:21.134Z,3.38
2023-03-29T01:53:05.606Z,3.38
2023-03-29T01:53:37.061Z,3.38
2023-03-29T01:54:08.847Z,3.38
2023-03-29T01:54:40.874Z,3.38
2023-03-29T01:55:13.176Z,3.38
2023-03-29T01:55:45.115Z,3.38
2023-03-29T01:56:16.876Z,3.38
2023-03-29T01:56:48.892Z,3.38
2023-03-29T01:57:20.944Z,3.38
2023-03-29T01:57:52.716Z,3.38
2023-03-29T01:58:24.668Z,3.38
2023-03-29T01:58:56.768Z,3.38
2023-03-29T01:59:28.647Z,3.38
2023-03-29T02:00:01.993Z,3.38
2023-03-29T02:00:32.655Z,3.38
2023-03-29T02:00:49.187Z,3.38
2023-03-29T02:01:32.667Z,3.38
2023-03-29T02:02:04.825Z,3.38
2023-03-29T02:02:36.866Z,3.38
2023-03-29T02:03:08.524Z,3.38
2023-03-29T02:03:40.441Z,3.38
2023-03-29T02:04:12.492Z,3.38
2023-03-29T02:04:44.503Z,3.38
2023-03-29T02:05:16.589Z,3.38
2023-03-29T02:05:48.466Z,3.38
2023-03-29T02:06:20.562Z,3.38
2023-03-29T02:06:52.334Z,3.38
2023-03-29T02:07:24.258Z,3.38
2023-03-29T02:07:56.314Z,3.27
2023-03-29T02:08:28.401Z,3.27
2023-03-29T02:09:00.665Z,3.27
2023-03-29T02:09:32.125Z,3.27
2023-03-29T02:10:04.897Z,3.27
2023-03-29T02:10:36.301Z,3.27
2023-03-29T02:11:08.278Z,3.27
2023-03-29T02:11:40.178Z,3.27
2023-03-29T02:12:12.088Z,3.27
2023-03-29T02:12:44.175Z,3.38
2023-03-29T02:13:16.317Z,3.38
2023-03-29T02:13:48.005Z,3.38
2023-03-29T02:14:04.632Z,3.50
2023-03-29T02:14:35.934Z,3.50
2023-03-29T02:15:20.785Z,3.50
2023-03-29T02:15:52.051Z,3.50
2023-03-29T02:16:23.978Z,3.50
2023-03-29T02:16:55.894Z,3.50
2023-03-29T02:17:28.096Z,3.50
2023-03-29T02:18:00.349Z,3.50
2023-03-29T02:18:31.798Z,3.50
2023-03-29T02:18:48.118Z,3.50
2023-03-29T02:19:31.762Z,3.50
2023-03-29T02:20:04.877Z,3.50
2023-03-29T02:20:35.947Z,3.50
2023-03-29T02:21:07.659Z,3.50
2023-03-29T02:21:39.810Z,3.50
2023-03-29T02:22:11.844Z,3.50
2023-03-29T02:22:43.725Z,3.50
2023-03-29T02:23:15.799Z,3.50
2023-03-29T02:23:47.720Z,3.50
2023-03-29T02:24:19.658Z,3.50
2023-03-29T02:24:51.595Z,3.50
2023-03-29T02:25:23.749Z,3.50
2023-03-29T02:25:55.547Z,3.50
2023-03-29T02:26:27.666Z,3.38
2023-03-29T02:26:59.734Z,3.38
2023-03-29T02:27:31.438Z,3.38
2023-03-29T02:27:47.584Z,3.38
2023-03-29T02:28:19.438Z,3.38
2023-03-29T02:28:35.509Z,3.38
2023-03-29T02:29:07.491Z,3.38
2023-03-29T02:29:39.603Z,3.38
2023-03-29T02:30:12.629Z,3.38
2023-03-29T02:30:43.495Z,3.38
2023-03-29T02:31:15.585Z,3.38
2023-03-29T02:31:47.337Z,3.38
2023-03-29T02:32:04.033Z,3.38
2023-03-29T02:32:35.241Z,3.27
2023-03-29T02:33:19.552Z,3.27
2023-03-29T02:33:51.114Z,3.27
2023-03-29T02:34:23.132Z,3.27
2023-03-29T02:34:55.115Z,3.27
2023-03-29T02:35:28.983Z,3.50
2023-03-29T02:35:59.253Z,3.50
2023-03-29T02:36:31.087Z,3.50
2023-03-29T02:36:47.289Z,3.50
2023-03-29T02:37:31.150Z,3.38
2023-03-29T02:38:03.794Z,3.38
2023-03-29T02:38:34.854Z,3.38
2023-03-29T02:39:07.025Z,3.38
2023-03-29T02:39:39.092Z,3.38
2023-03-29T02:40:11.143Z,3.38
2023-03-29T02:40:42.985Z,3.38
2023-03-29T02:41:14.906Z,3.38
2023-03-29T02:41:47.000Z,3.38
2023-03-29T02:42:19.048Z,3.27
2023-03-29T02:42:50.700Z,3.27
2023-03-29T02:43:25.273Z,3.27
2023-03-29T02:43:54.778Z,3.27
2023-03-29T02:44:27.002Z,3.27
2023-03-29T02:44:58.748Z,3.27
2023-03-29T02:45:31.122Z,3.27
2023-03-29T02:46:03.657Z,3.27
2023-03-29T02:46:34.799Z,3.27
2023-03-29T02:47:07.030Z,3.27
2023-03-29T02:47:38.566Z,3.22
2023-03-29T02:48:10.691Z,3.22
2023-03-29T02:48:42.622Z,3.22
2023-03-29T02:49:14.409Z,3.22
2023-03-29T02:49:46.684Z,3.22
2023-03-29T02:50:03.745Z,3.22
2023-03-29T02:50:34.522Z,3.22
2023-03-29T02:51:19.921Z,3.22
2023-03-29T02:51:50.456Z,3.22
2023-03-29T02:52:22.363Z,3.22
2023-03-29T02:52:54.372Z,3.22
2023-03-29T02:53:26.560Z,3.22
2023-03-29T02:53:58.558Z,3.27
2023-03-29T02:54:30.449Z,3.27
2023-03-29T02:55:03.403Z,3.27
2023-03-29T02:55:34.640Z,3.27
2023-03-29T02:56:06.320Z,3.27
2023-03-29T02:56:38.245Z,3.27
2023-03-29T02:57:10.485Z,3.27
2023-03-29T02:57:42.355Z,3.27
2023-03-29T02:58:14.113Z,3.27
2023-03-29T02:58:46.281Z,3.22
2023-03-29T02:59:18.260Z,3.22
2023-03-29T02:59:50.298Z,3.27
2023-03-29T03:00:22.413Z,3.22
2023-03-29T03:00:54.113Z,3.22
2023-03-29T03:01:26.192Z,3.22
2023-03-29T03:01:58.153Z,3.22
2023-03-29T03:02:30.110Z,3.22
2023-03-29T03:03:02.405Z,3.11
2023-03-29T03:03:34.214Z,3.11
2023-03-29T03:04:06.830Z,3.11
2023-03-29T03:04:37.953Z,3.00
2023-03-29T03:05:10.305Z,3.00
2023-03-29T03:05:41.881Z,3.00
2023-03-29T03:06:13.835Z,3.00
2023-03-29T03:06:45.906Z,3.00
2023-03-29T03:07:02.043Z,3.00
2023-03-29T03:07:33.815Z,3.00
2023-03-29T03:08:17.924Z,3.00
2023-03-29T03:08:49.927Z,3.00
2023-03-29T03:09:21.916Z,3.00
2023-03-29T03:09:54.072Z,3.00
2023-03-29T03:10:27.860Z,3.00
2023-03-29T03:10:57.830Z,3.00
2023-03-29T03:11:29.810Z,3.00
2023-03-29T03:11:45.872Z,3.00
2023-03-29T03:12:29.591Z,3.00
2023-03-29T03:13:01.975Z,3.11
2023-03-29T03:13:33.504Z,3.00
2023-03-29T03:14:05.607Z,3.11
2023-03-29T03:14:37.598Z,3.11
2023-03-29T03:15:11.196Z,3.11
2023-03-29T03:15:41.271Z,3.11
2023-03-29T03:16:13.478Z,3.11
2023-03-29T03:16:45.501Z,3.22
2023-03-29T03:17:17.583Z,3.11
2023-03-29T03:17:49.457Z,3.11
2023-03-29T03:18:21.337Z,3.11
2023-03-29T03:18:53.197Z,3.11
2023-03-29T03:19:25.388Z,3.11
2023-03-29T03:19:57.325Z,3.11
2023-03-29T03:20:29.600Z,3.22
2023-03-29T03:20:45.492Z,3.22
2023-03-29T03:21:17.267Z,3.22
2023-03-29T03:21:33.280Z,3.11
2023-03-29T03:22:05.535Z,3.11
2023-03-29T03:22:37.310Z,3.11
2023-03-29T03:23:09.253Z,3.11
2023-03-29T03:23:41.269Z,3.22
2023-03-29T03:24:13.093Z,3.22
2023-03-29T03:24:45.055Z,3.22
2023-03-29T03:25:01.712Z,3.22
2023-03-29T03:25:33.002Z,3.22
2023-03-29T03:26:17.125Z,3.22
2023-03-29T03:26:49.331Z,3.22
2023-03-29T03:27:20.895Z,3.22
2023-03-29T03:27:52.942Z,3.22
2023-03-29T03:28:25.127Z,3.22
2023-03-29T03:28:57.170Z,3.22
2023-03-29T03:29:28.981Z,3.22
2023-03-29T03:29:45.058Z,3.22
2023-03-29T03:30:29.317Z,3.22
2023-03-29T03:31:01.129Z,3.27
2023-03-29T03:31:32.908Z,3.27
2023-03-29T03:32:05.171Z,3.22
2023-03-29T03:32:20.863Z,3.27
2023-03-29T03:32:52.746Z,3.27
2023-03-29T03:33:36.965Z,3.27
2023-03-29T03:34:08.600Z,3.27
2023-03-29T03:34:40.910Z,3.27
2023-03-29T03:35:13.215Z,3.38
2023-03-29T03:35:44.692Z,3.38
2023-03-29T03:36:16.818Z,3.38
2023-03-29T03:36:32.674Z,3.38
2023-03-29T03:37:05.210Z,3.38
2023-03-29T03:37:48.680Z,3.38
2023-03-29T03:38:20.523Z,3.38
2023-03-29T03:38:52.547Z,3.38
2023-03-29T03:39:24.555Z,3.38
2023-03-29T03:39:56.579Z,3.38
2023-03-29T03:40:28.866Z,3.38
2023-03-29T03:41:01.143Z,3.38
2023-03-29T03:41:16.815Z,3.38
2023-03-29T03:42:00.628Z,3.38
2023-03-29T03:42:16.777Z,3.38
2023-03-29T03:43:00.565Z,3.38
2023-03-29T03:43:32.445Z,3.38
2023-03-29T03:44:04.687Z,3.38
2023-03-29T03:44:36.461Z,3.38
2023-03-29T03:45:09.830Z,3.38
2023-03-29T03:45:40.463Z,3.38
2023-03-29T03:46:12.061Z,3.27
2023-03-29T03:46:44.255Z,3.27
2023-03-29T03:47:00.483Z,3.27
2023-03-29T03:47:32.115Z,3.27
2023-03-29T03:48:16.457Z,3.27
2023-03-29T03:48:48.200Z,3.27
2023-03-29T03:49:20.318Z,3.27
2023-03-29T03:49:52.241Z,3.27
2023-03-29T03:50:24.314Z,3.27
2023-03-29T03:50:55.925Z,3.27
2023-03-29T03:51:28.083Z,3.27
2023-03-29T03:51:44.255Z,3.27
2023-03-29T03:52:28.146Z,3.27
2023-03-29T03:53:00.098Z,3.27
2023-03-29T03:53:31.830Z,3.27
2023-03-29T03:54:04.360Z,3.38
2023-03-29T03:54:35.764Z,3.38
2023-03-29T03:55:08.349Z,3.38
2023-03-29T03:55:44.872Z,3.38
2023-03-29T03:56:11.677Z,3.38
2023-03-29T03:56:43.925Z,3.38
2023-03-29T03:57:15.903Z,3.38
2023-03-29T03:57:47.765Z,3.38
2023-03-29T03:58:20.021Z,3.38
2023-03-29T03:58:51.783Z,3.38
2023-03-29T03:59:23.721Z,3.38
2023-03-29T03:59:55.491Z,3.50
2023-03-29T04:00:28.180Z,3.50
2023-03-29T04:00:43.831Z,3.50
2023-03-29T04:01:15.735Z,3.50
2023-03-29T04:01:31.756Z,3.50
2023-03-29T04:02:03.949Z,3.50
2023-03-29T04:02:35.663Z,3.50
2023-03-29T04:03:07.710Z,3.50
2023-03-29T04:03:39.610Z,3.50
2023-03-29T04:04:11.380Z,3.50
2023-03-29T04:04:43.448Z,3.50
2023-03-29T04:04:59.559Z,3.50
2023-03-29T04:05:31.674Z,3.50
2023-03-29T04:06:15.586Z,3.61
2023-03-29T04:06:47.472Z,3.61
2023-03-29T04:07:19.503Z,3.61
2023-03-29T04:07:51.288Z,3.50
2023-03-29T04:08:23.287Z,3.50
2023-03-29T04:08:55.181Z,3.50
2023-03-29T04:09:27.243Z,3.50
2023-03-29T04:09:59.509Z,3.50
2023-03-29T04:10:31.607Z,3.50
2023-03-29T04:11:03.489Z,3.50
2023-03-29T04:11:35.137Z,3.50
2023-03-29T04:12:07.164Z,3.50
2023-03-29T04:12:39.161Z,3.50
2023-03-29T04:13:11.150Z,3.50
2023-03-29T04:13:43.113Z,3.50
2023-03-29T04:13:59.357Z,3.50
2023-03-29T04:14:43.162Z,3.50
2023-03-29T04:15:16.423Z,3.50
2023-03-29T04:15:47.317Z,3.50
2023-03-29T04:16:19.190Z,3.50
2023-03-29T04:16:50.934Z,3.50
2023-03-29T04:17:22.962Z,3.50
2023-03-29T04:17:54.815Z,3.50
2023-03-29T04:18:27.011Z,3.50
2023-03-29T04:18:58.941Z,3.50
2023-03-29T04:19:30.988Z,3.50
2023-03-29T04:20:03.249Z,3.50
2023-03-29T04:20:34.760Z,3.50
2023-03-29T04:21:06.881Z,3.50
2023-03-29T04:21:38.742Z,3.50
2023-03-29T04:22:10.692Z,3.61
2023-03-29T04:22:42.720Z,3.61
2023-03-29T04:22:58.992Z,3.61
2023-03-29T04:23:30.610Z,3.61
2023-03-29T04:24:14.788Z,3.50
2023-03-29T04:24:46.741Z,3.50
2023-03-29T04:25:18.909Z,3.50
2023-03-29T04:25:50.623Z,3.50
2023-03-29T04:26:22.640Z,3.50
2023-03-29T04:26:54.353Z,3.50
2023-03-29T04:27:26.516Z,3.50
2023-03-29T04:27:42.668Z,3.50
2023-03-29T04:28:26.741Z,3.50
2023-03-29T04:28:58.628Z,3.50
2023-03-29T04:29:30.422Z,3.50
2023-03-29T04:30:06.761Z,3.50
2023-03-29T04:30:34.560Z,3.50
2023-03-29T04:31:06.454Z,3.50
2023-03-29T04:31:38.406Z,3.61
2023-03-29T04:32:10.397Z,3.50
2023-03-29T04:32:42.312Z,3.50
2023-03-29T04:33:14.610Z,3.61
2023-03-29T04:33:46.359Z,3.61
2023-03-29T04:34:18.188Z,3.50
2023-03-29T04:34:50.428Z,3.50
2023-03-29T04:35:22.983Z,3.50
2023-03-29T04:35:54.044Z,3.50
2023-03-29T04:36:26.204Z,3.61
2023-03-29T04:36:58.364Z,3.61
2023-03-29T04:37:30.369Z,3.61
2023-03-29T04:38:02.864Z,3.61
2023-03-29T04:38:34.153Z,3.72
2023-03-29T04:39:06.026Z,3.72
2023-03-29T04:39:38.064Z,3.72
2023-03-29T04:40:10.429Z,3.61
2023-03-29T04:40:41.979Z,3.61
2023-03-29T04:40:58.523Z,3.61
2023-03-29T04:41:29.954Z,3.61
2023-03-29T04:42:13.955Z,3.61
2023-03-29T04:42:45.895Z,3.61
2023-03-29T04:43:18.015Z,3.61
2023-03-29T04:43:49.980Z,3.61
2023-03-29T04:44:21.749Z,3.50
2023-03-29T04:44:53.796Z,3.50
2023-03-29T04:45:27.957Z,3.50
2023-03-29T04:45:41.864Z,3.50
2023-03-29T04:46:25.946Z,3.61
2023-03-29T04:46:57.737Z,3.61
2023-03-29T04:47:29.986Z,3.61
2023-03-29T04:48:02.140Z,3.61
2023-03-29T04:48:17.993Z,3.61
2023-03-29T04:48:49.850Z,3.61
2023-03-29T04:49:33.555Z,3.61
2023-03-29T04:50:05.989Z,3.61
2023-03-29T04:50:37.527Z,3.61
2023-03-29T04:51:09.529Z,3.61
2023-03-29T04:51:41.553Z,3.61
2023-03-29T04:52:13.426Z,3.61
2023-03-29T04:52:29.641Z,3.61
2023-03-29T04:53:01.956Z,3.61
2023-03-29T04:53:45.433Z,3.61
2023-03-29T04:54:17.852Z,3.61
2023-03-29T04:54:49.644Z,3.61
2023-03-29T04:55:21.553Z,3.61
2023-03-29T04:55:53.295Z,3.61
2023-03-29T04:56:25.284Z,3.61
2023-03-29T04:56:57.225Z,3.61
2023-03-29T04:57:13.795Z,3.61
2023-03-29T04:57:57.182Z,3.61
2023-03-29T04:58:32.213Z,3.61
2023-03-29T04:59:01.755Z,3.72
2023-03-29T04:59:33.135Z,3.72
2023-03-29T05:00:12.739Z,3.72
2023-03-29T05:00:37.177Z,3.72
2023-03-29T05:01:09.152Z,3.72
2023-03-29T05:01:41.151Z,3.72
2023-03-29T05:01:57.224Z,3.72
2023-03-29T05:02:29.124Z,3.72
2023-03-29T05:03:13.267Z,3.72
2023-03-29T05:03:45.103Z,3.72
2023-03-29T05:04:17.209Z,3.72
2023-03-29T05:04:49.140Z,3.72
2023-03-29T05:05:22.885Z,3.72
2023-03-29T05:05:53.020Z,3.72
2023-03-29T05:06:24.780Z,3.61
2023-03-29T05:06:41.074Z,3.61
2023-03-29T05:07:24.702Z,3.61
2023-03-29T05:07:56.867Z,3.61
2023-03-29T05:08:29.198Z,3.61
2023-03-29T05:09:00.729Z,3.61
2023-03-29T05:09:34.975Z,3.61
2023-03-29T05:10:05.187Z,3.61
2023-03-29T05:10:36.812Z,3.61
2023-03-29T05:11:08.657Z,3.61
2023-03-29T05:11:40.734Z,3.72
2023-03-29T05:11:56.803Z,3.72
2023-03-29T05:12:40.740Z,3.72
2023-03-29T05:13:12.716Z,3.72
2023-03-29T05:13:44.569Z,3.72
2023-03-29T05:14:16.734Z,3.72
2023-03-29T05:14:48.529Z,3.77
2023-03-29T05:15:27.720Z,3.77
2023-03-29T05:15:52.525Z,3.77
2023-03-29T05:16:24.496Z,3.77
2023-03-29T05:16:56.597Z,3.77
2023-03-29T05:17:29.056Z,3.77
2023-03-29T05:18:00.306Z,3.77
2023-03-29T05:18:32.366Z,3.77
2023-03-29T05:19:04.731Z,3.77
2023-03-29T05:19:36.527Z,3.77
2023-03-29T05:20:08.825Z,3.77
2023-03-29T05:20:40.466Z,3.88
2023-03-29T05:20:57.031Z,3.88
2023-03-29T05:21:28.668Z,3.88
2023-03-29T05:22:12.414Z,3.88
2023-03-29T05:22:44.318Z,3.77
2023-03-29T05:23:16.505Z,3.77
2023-03-29T05:23:48.333Z,3.77
2023-03-29T05:24:20.537Z,3.77
2023-03-29T05:24:52.244Z,3.77
2023-03-29T05:25:24.589Z,3.77
2023-03-29T05:25:56.377Z,3.77
2023-03-29T05:26:30.671Z,3.77
2023-03-29T05:27:00.211Z,3.88
2023-03-29T05:27:32.266Z,3.88
2023-03-29T05:28:04.267Z,3.88
2023-03-29T05:28:36.685Z,3.88
2023-03-29T05:29:08.071Z,3.88
2023-03-29T05:29:40.150Z,3.88
2023-03-29T05:30:13.560Z,3.88
2023-03-29T05:30:44.873Z,3.88
2023-03-29T05:31:17.033Z,3.88
2023-03-29T05:31:48.121Z,3.88
2023-03-29T05:32:20.115Z,3.88
2023-03-29T05:32:52.058Z,3.88
2023-03-29T05:33:23.783Z,3.88
2023-03-29T05:33:40.058Z,3.88
2023-03-29T05:34:11.885Z,3.88
2023-03-29T05:34:27.921Z,3.88
2023-03-29T05:35:00.017Z,3.88
2023-03-29T05:35:32.095Z,3.88
2023-03-29T05:36:04.016Z,3.88
2023-03-29T05:36:35.888Z,3.88
2023-03-29T05:37:07.945Z,3.88
2023-03-29T05:37:39.705Z,3.88
2023-03-29T05:37:55.922Z,3.88
2023-03-29T05:38:27.810Z,3.88
2023-03-29T05:39:11.968Z,3.88
2023-03-29T05:39:43.764Z,3.88
2023-03-29T05:40:15.906Z,3.88
2023-03-29T05:40:47.952Z,3.88
2023-03-29T05:41:19.790Z,3.88
2023-03-29T05:41:51.675Z,3.88
2023-03-29T05:42:23.465Z,4.00
2023-03-29T05:42:39.789Z,4.00
2023-03-29T05:43:23.554Z,4.00
2023-03-29T05:43:55.530Z,4.00
2023-03-29T05:44:27.823Z,4.00
2023-03-29T05:44:59.463Z,3.88
2023-03-29T05:45:33.488Z,3.88
2023-03-29T05:46:04.074Z,3.88
2023-03-29T05:46:35.470Z,3.88
2023-03-29T05:47:07.399Z,3.88
2023-03-29T05:47:39.384Z,3.88
2023-03-29T05:48:11.543Z,3.88
2023-03-29T05:48:43.319Z,3.88
2023-03-29T05:49:15.197Z,4.00
2023-03-29T05:49:47.581Z,4.00
2023-03-29T05:50:19.761Z,4.00
2023-03-29T05:50:51.342Z,4.00
2023-03-29T05:51:23.161Z,3.77
2023-03-29T05:51:39.451Z,3.77
2023-03-29T05:52:11.164Z,3.77
2023-03-29T05:52:27.277Z,3.77
2023-03-29T05:52:59.226Z,3.77
2023-03-29T05:53:31.015Z,3.77
2023-03-29T05:54:03.944Z,3.77
2023-03-29T05:54:35.134Z,3.77
2023-03-29T05:55:07.237Z,3.77
2023-03-29T05:55:39.089Z,3.77
2023-03-29T05:55:55.304Z,3.88
2023-03-29T05:56:27.076Z,3.88
2023-03-29T05:57:11.013Z,3.88
2023-03-29T05:57:43.018Z,3.88
2023-03-29T05:58:14.862Z,3.88
2023-03-29T05:58:47.166Z,3.88
2023-03-29T05:59:18.922Z,4.00
2023-03-29T05:59:50.881Z,4.00
2023-03-29T06:00:25.050Z,4.00
2023-03-29T06:00:38.987Z,4.00
2023-03-29T06:01:22.908Z,4.11
2023-03-29T06:01:54.831Z,4.11
2023-03-29T06:02:27.057Z,4.11
2023-03-29T06:03:03.626Z,4.11
2023-03-29T06:03:21.502Z,4.11
2023-03-29T06:03:47.019Z,4.11
2023-03-29T06:04:31.040Z,4.11
2023-03-29T06:05:03.309Z,4.11
2023-03-29T06:05:34.461Z,4.11
2023-03-29T06:06:06.608Z,4.22
2023-03-29T06:06:38.794Z,4.22
2023-03-29T06:07:10.627Z,4.22
2023-03-29T06:07:42.464Z,4.22
2023-03-29T06:08:14.466Z,4.22
2023-03-29T06:08:46.770Z,4.22
2023-03-29T06:09:18.547Z,4.22
2023-03-29T06:09:50.538Z,4.22
2023-03-29T06:10:22.517Z,4.27
2023-03-29T06:10:55.949Z,4.27
2023-03-29T06:11:26.543Z,4.27
2023-03-29T06:11:58.242Z,4.27
2023-03-29T06:12:30.305Z,4.27
2023-03-29T06:13:02.806Z,4.38
2023-03-29T06:13:34.361Z,4.38
2023-03-29T06:14:06.236Z,4.38
2023-03-29T06:14:38.306Z,4.38
2023-03-29T06:15:11.576Z,4.38
2023-03-29T06:15:42.306Z,4.38
2023-03-29T06:16:14.030Z,4.50
2023-03-29T06:16:46.208Z,4.50
2023-03-29T06:17:18.369Z,4.50
2023-03-29T06:17:50.421Z,4.50
2023-03-29T06:18:22.030Z,4.50
2023-03-29T06:18:38.080Z,4.50
2023-03-29T06:19:22.012Z,4.61
2023-03-29T06:19:54.119Z,4.61
2023-03-29T06:20:26.899Z,4.61
2023-03-29T06:20:57.989Z,4.61
2023-03-29T06:21:30.130Z,4.38
2023-03-29T06:22:02.888Z,4.22
2023-03-29T06:22:34.034Z,4.22
2023-03-29T06:23:05.898Z,4.22
2023-03-29T06:23:37.956Z,4.22
2023-03-29T06:24:10.019Z,4.27
2023-03-29T06:24:41.908Z,4.27
2023-03-29T06:25:13.864Z,4.38
2023-03-29T06:25:45.785Z,4.72
2023-03-29T06:26:18.013Z,4.72
2023-03-29T06:26:49.950Z,4.77
2023-03-29T06:27:21.617Z,4.77
2023-03-29T06:27:37.845Z,4.77
2023-03-29T06:28:09.749Z,4.50
2023-03-29T06:28:25.656Z,4.38
2023-03-29T06:28:57.881Z,4.38
2023-03-29T06:29:29.857Z,4.22
2023-03-29T06:30:05.985Z,4.00
2023-03-29T06:30:33.633Z,3.61
2023-03-29T06:31:07.630Z,3.61
2023-03-29T06:31:37.532Z,3.72
2023-03-29T06:31:53.664Z,3.77
2023-03-29T06:32:25.550Z,3.88
2023-03-29T06:33:09.593Z,4.00
2023-03-29T06:33:41.542Z,4.27
2023-03-29T06:34:13.400Z,4.27
2023-03-29T06:34:45.408Z,4.22
2023-03-29T06:35:18.500Z,4.27
2023-03-29T06:35:49.675Z,4.22
2023-03-29T06:36:22.667Z,4.00
2023-03-29T06:36:37.380Z,3.77
2023-03-29T06:37:21.488Z,3.61
2023-03-29T06:37:53.262Z,3.27
2023-03-29T06:38:25.060Z,3.27
2023-03-29T06:38:57.321Z,3.38
2023-03-29T06:39:29.413Z,3.38
2023-03-29T06:40:01.693Z,3.27
2023-03-29T06:40:33.724Z,3.22
2023-03-29T06:41:05.419Z,3.00
2023-03-29T06:41:37.271Z,3.38
2023-03-29T06:42:20.010Z,3.72
2023-03-29T06:42:25.073Z,3.72
2023-03-29T06:42:57.195Z,3.61
2023-03-29T06:43:40.964Z,3.77
2023-03-29T06:44:13.092Z,3.77
2023-03-29T06:44:45.032Z,4.00
2023-03-29T06:45:24.002Z,3.88
2023-03-29T06:45:48.989Z,3.72
2023-03-29T06:46:21.022Z,3.88
2023-03-29T06:46:52.939Z,3.88
2023-03-29T06:47:24.997Z,3.72
2023-03-29T06:47:57.049Z,3.77
2023-03-29T06:48:28.975Z,3.50
2023-03-29T06:49:00.832Z,3.27
2023-03-29T06:49:32.816Z,3.27
2023-03-29T06:50:05.173Z,3.27
2023-03-29T06:50:36.834Z,3.38
2023-03-29T06:51:08.769Z,3.38
2023-03-29T06:51:24.745Z,3.38
2023-03-29T06:52:08.745Z,3.27
2023-03-29T06:52:40.661Z,3.38
2023-03-29T06:53:12.515Z,3.38
2023-03-29T06:53:44.668Z,3.38
2023-03-29T06:54:16.595Z,3.38
2023-03-29T06:54:48.646Z,3.22
2023-03-29T06:55:20.865Z,3.22
2023-03-29T06:55:37.806Z,3.27
2023-03-29T06:56:20.604Z,3.61
2023-03-29T06:56:52.461Z,3.77
2023-03-29T06:57:24.663Z,3.77
2023-03-29T06:57:56.411Z,3.77